sensor_id;sensor_type;location;lat;lon;timestamp;P1;durP1;ratioP1;P2;durP2;ratioP2
22429;SDS011;11382;48.086;11.632;2023-01-28T00:01:45;31.38;;;16.73;;
22429;SDS011;11382;48.086;11.632;2023-01-28T00:04:14;32.92;;;17.33;;
22429;SDS011;11382;48.086;11.632;2023-01-28T00:06:44;33.33;;;17.58;;
22429;SDS011;11382;48.086;11.632;2023-01-28T00:09:13;34.50;;;17.75;;
22429;SDS011;11382;48.086;11.632;2023-01-28T00:11:41;33.17;;;17.52;;
22429;SDS011;11382;48.086;11.632;2023-01-28T00:14:09;34.65;;;18.23;;
22429;SDS011;11382;48.086;11.632;2023-01-28T00:16:38;35.75;;;18.40;;
22429;SDS011;11382;48.086;11.632;2023-01-28T00:19:06;34.20;;;18.67;;
22429;SDS011;11382;48.086;11.632;2023-01-28T00:21:35;40.40;;;19.48;;
22429;SDS011;11382;48.086;11.632;2023-01-28T00:24:04;36.80;;;18.38;;
22429;SDS011;11382;48.086;11.632;2023-01-28T00:26:34;32.65;;;17.52;;
22429;SDS011;11382;48.086;11.632;2023-01-28T00:29:03;35.90;;;18.15;;
22429;SDS011;11382;48.086;11.632;2023-01-28T00:31:31;35.60;;;17.67;;
22429;SDS011;11382;48.086;11.632;2023-01-28T00:34:00;33.88;;;18.05;;
22429;SDS011;11382;48.086;11.632;2023-01-28T00:36:28;33.80;;;17.33;;
22429;SDS011;11382;48.086;11.632;2023-01-28T00:38:58;37.58;;;17.73;;
22429;SDS011;11382;48.086;11.632;2023-01-28T00:41:27;38.95;;;19.00;;
22429;SDS011;11382;48.086;11.632;2023-01-28T00:43:57;35.50;;;18.73;;
22429;SDS011;11382;48.086;11.632;2023-01-28T00:46:25;39.22;;;19.67;;
22429;SDS011;11382;48.086;11.632;2023-01-28T00:48:53;38.78;;;18.63;;
22429;SDS011;11382;48.086;11.632;2023-01-28T00:51:21;39.03;;;18.80;;
22429;SDS011;11382;48.086;11.632;2023-01-28T00:53:49;37.30;;;18.73;;
22429;SDS011;11382;48.086;11.632;2023-01-28T00:56:19;37.55;;;19.38;;
22429;SDS011;11382;48.086;11.632;2023-01-28T00:58:47;39.55;;;19.73;;
22429;SDS011;11382;48.086;11.632;2023-01-28T01:01:16;40.50;;;17.75;;
22429;SDS011;11382;48.086;11.632;2023-01-28T01:03:46;36.17;;;18.52;;
22429;SDS011;11382;48.086;11.632;2023-01-28T01:06:20;37.47;;;19.20;;
22429;SDS011;11382;48.086;11.632;2023-01-28T01:08:48;34.78;;;17.95;;
22429;SDS011;11382;48.086;11.632;2023-01-28T01:11:16;35.90;;;18.67;;
22429;SDS011;11382;48.086;11.632;2023-01-28T01:13:49;34.70;;;17.90;;
22429;SDS011;11382;48.086;11.632;2023-01-28T01:16:20;30.80;;;16.77;;
22429;SDS011;11382;48.086;11.632;2023-01-28T01:18:49;36.22;;;18.42;;
22429;SDS011;11382;48.086;11.632;2023-01-28T01:21:19;35.42;;;17.52;;
22429;SDS011;11382;48.086;11.632;2023-01-28T01:23:49;37.30;;;18.23;;
22429;SDS011;11382;48.086;11.632;2023-01-28T01:26:20;36.70;;;18.08;;
22429;SDS011;11382;48.086;11.632;2023-01-28T01:28:50;35.28;;;17.85;;
22429;SDS011;11382;48.086;11.632;2023-01-28T01:31:19;37.25;;;18.45;;
22429;SDS011;11382;48.086;11.632;2023-01-28T01:33:49;34.80;;;18.17;;
22429;SDS011;11382;48.086;11.632;2023-01-28T01:36:18;35.92;;;17.58;;
22429;SDS011;11382;48.086;11.632;2023-01-28T01:38:47;34.25;;;18.38;;
22429;SDS011;11382;48.086;11.632;2023-01-28T01:41:24;34.78;;;18.08;;
22429;SDS011;11382;48.086;11.632;2023-01-28T01:43:56;33.10;;;17.30;;
22429;SDS011;11382;48.086;11.632;2023-01-28T01:46:28;33.53;;;17.95;;
22429;SDS011;11382;48.086;11.632;2023-01-28T01:49:04;29.30;;;16.63;;
22429;SDS011;11382;48.086;11.632;2023-01-28T01:51:39;35.35;;;17.15;;
22429;SDS011;11382;48.086;11.632;2023-01-28T01:54:07;35.28;;;17.92;;
22429;SDS011;11382;48.086;11.632;2023-01-28T01:56:36;31.80;;;17.33;;
22429;SDS011;11382;48.086;11.632;2023-01-28T01:59:10;33.55;;;16.75;;
22429;SDS011;11382;48.086;11.632;2023-01-28T02:01:41;35.28;;;17.40;;
22429;SDS011;11382;48.086;11.632;2023-01-28T02:04:11;33.15;;;17.17;;
22429;SDS011;11382;48.086;11.632;2023-01-28T02:06:44;35.92;;;18.00;;
22429;SDS011;11382;48.086;11.632;2023-01-28T02:09:21;34.00;;;17.67;;
22429;SDS011;11382;48.086;11.632;2023-01-28T02:11:51;36.20;;;19.10;;
22429;SDS011;11382;48.086;11.632;2023-01-28T02:14:23;35.50;;;17.40;;
22429;SDS011;11382;48.086;11.632;2023-01-28T02:16:57;35.17;;;17.77;;
22429;SDS011;11382;48.086;11.632;2023-01-28T02:19:28;34.25;;;17.60;;
22429;SDS011;11382;48.086;11.632;2023-01-28T02:22:09;34.83;;;17.45;;
22429;SDS011;11382;48.086;11.632;2023-01-28T02:28:13;34.65;;;17.58;;
22429;SDS011;11382;48.086;11.632;2023-01-28T02:30:51;32.80;;;16.80;;
22429;SDS011;11382;48.086;11.632;2023-01-28T02:33:26;33.50;;;17.02;;
22429;SDS011;11382;48.086;11.632;2023-01-28T02:36:01;35.40;;;17.40;;
22429;SDS011;11382;48.086;11.632;2023-01-28T02:38:38;32.72;;;17.63;;
22429;SDS011;11382;48.086;11.632;2023-01-28T02:41:10;35.42;;;17.52;;
22429;SDS011;11382;48.086;11.632;2023-01-28T02:43:48;35.00;;;16.83;;
22429;SDS011;11382;48.086;11.632;2023-01-28T02:46:18;33.90;;;17.00;;
22429;SDS011;11382;48.086;11.632;2023-01-28T02:49:07;34.03;;;19.08;;
22429;SDS011;11382;48.086;11.632;2023-01-28T02:51:44;33.00;;;17.42;;
22429;SDS011;11382;48.086;11.632;2023-01-28T02:54:46;32.53;;;16.45;;
22429;SDS011;11382;48.086;11.632;2023-01-28T02:57:24;35.28;;;17.98;;
22429;SDS011;11382;48.086;11.632;2023-01-28T03:00:03;33.97;;;16.70;;
22429;SDS011;11382;48.086;11.632;2023-01-28T03:02:40;30.60;;;17.23;;
22429;SDS011;11382;48.086;11.632;2023-01-28T03:05:13;34.85;;;18.02;;
22429;SDS011;11382;48.086;11.632;2023-01-28T03:07:47;33.40;;;17.27;;
22429;SDS011;11382;48.086;11.632;2023-01-28T03:10:17;33.95;;;18.23;;
22429;SDS011;11382;48.086;11.632;2023-01-28T03:12:47;35.90;;;17.27;;
22429;SDS011;11382;48.086;11.632;2023-01-28T03:15:38;35.05;;;17.00;;
22429;SDS011;11382;48.086;11.632;2023-01-28T03:18:27;33.03;;;17.23;;
22429;SDS011;11382;48.086;11.632;2023-01-28T03:21:18;36.55;;;18.23;;
22429;SDS011;11382;48.086;11.632;2023-01-28T03:24:08;33.10;;;17.35;;
22429;SDS011;11382;48.086;11.632;2023-01-28T03:27:04;33.10;;;17.67;;
22429;SDS011;11382;48.086;11.632;2023-01-28T03:30:01;34.03;;;17.15;;
22429;SDS011;11382;48.086;11.632;2023-01-28T03:32:52;33.03;;;16.17;;
22429;SDS011;11382;48.086;11.632;2023-01-28T03:35:39;32.25;;;16.60;;
22429;SDS011;11382;48.086;11.632;2023-01-28T03:38:25;28.85;;;15.13;;
22429;SDS011;11382;48.086;11.632;2023-01-28T03:41:00;30.13;;;15.93;;
22429;SDS011;11382;48.086;11.632;2023-01-28T03:43:30;30.83;;;15.63;;
22429;SDS011;11382;48.086;11.632;2023-01-28T03:45:59;30.65;;;16.20;;
22429;SDS011;11382;48.086;11.632;2023-01-28T03:48:28;30.70;;;17.30;;
22429;SDS011;11382;48.086;11.632;2023-01-28T03:50:58;35.83;;;16.77;;
22429;SDS011;11382;48.086;11.632;2023-01-28T03:53:28;29.52;;;15.75;;
22429;SDS011;11382;48.086;11.632;2023-01-28T03:55:56;36.47;;;18.50;;
22429;SDS011;11382;48.086;11.632;2023-01-28T03:58:24;31.40;;;16.48;;
22429;SDS011;11382;48.086;11.632;2023-01-28T04:01:13;31.73;;;15.70;;
22429;SDS011;11382;48.086;11.632;2023-01-28T04:03:43;36.35;;;18.27;;
22429;SDS011;11382;48.086;11.632;2023-01-28T04:06:21;34.55;;;17.55;;
22429;SDS011;11382;48.086;11.632;2023-01-28T04:09:04;31.63;;;17.08;;
22429;SDS011;11382;48.086;11.632;2023-01-28T04:11:39;34.33;;;17.50;;
22429;SDS011;11382;48.086;11.632;2023-01-28T04:14:11;30.98;;;16.05;;
22429;SDS011;11382;48.086;11.632;2023-01-28T04:16:56;31.83;;;17.00;;
22429;SDS011;11382;48.086;11.632;2023-01-28T04:19:26;33.00;;;17.17;;
22429;SDS011;11382;48.086;11.632;2023-01-28T04:21:58;31.95;;;16.42;;
22429;SDS011;11382;48.086;11.632;2023-01-28T04:24:26;30.23;;;15.00;;
22429;SDS011;11382;48.086;11.632;2023-01-28T04:26:54;29.30;;;15.25;;
22429;SDS011;11382;48.086;11.632;2023-01-28T04:29:24;29.30;;;14.70;;
22429;SDS011;11382;48.086;11.632;2023-01-28T04:31:55;29.15;;;15.40;;
22429;SDS011;11382;48.086;11.632;2023-01-28T04:34:53;29.17;;;16.17;;
22429;SDS011;11382;48.086;11.632;2023-01-28T04:37:45;29.35;;;16.00;;
22429;SDS011;11382;48.086;11.632;2023-01-28T04:40:33;32.17;;;16.58;;
22429;SDS011;11382;48.086;11.632;2023-01-28T04:43:09;29.90;;;16.00;;
22429;SDS011;11382;48.086;11.632;2023-01-28T04:45:49;31.85;;;17.17;;
22429;SDS011;11382;48.086;11.632;2023-01-28T04:48:39;28.83;;;15.65;;
22429;SDS011;11382;48.086;11.632;2023-01-28T04:51:27;31.75;;;16.38;;
22429;SDS011;11382;48.086;11.632;2023-01-28T04:54:19;32.65;;;16.10;;
22429;SDS011;11382;48.086;11.632;2023-01-28T04:56:48;30.45;;;15.63;;
22429;SDS011;11382;48.086;11.632;2023-01-28T04:59:16;26.08;;;14.65;;
22429;SDS011;11382;48.086;11.632;2023-01-28T05:01:45;29.42;;;15.77;;
22429;SDS011;11382;48.086;11.632;2023-01-28T05:04:13;32.53;;;16.40;;
22429;SDS011;11382;48.086;11.632;2023-01-28T05:06:44;34.90;;;17.20;;
22429;SDS011;11382;48.086;11.632;2023-01-28T05:09:15;25.02;;;13.13;;
22429;SDS011;11382;48.086;11.632;2023-01-28T05:11:43;35.83;;;18.00;;
22429;SDS011;11382;48.086;11.632;2023-01-28T05:14:12;31.67;;;16.60;;
22429;SDS011;11382;48.086;11.632;2023-01-28T05:16:49;33.80;;;17.83;;
22429;SDS011;11382;48.086;11.632;2023-01-28T05:19:18;36.40;;;17.70;;
22429;SDS011;11382;48.086;11.632;2023-01-28T05:21:47;34.40;;;18.55;;
22429;SDS011;11382;48.086;11.632;2023-01-28T05:24:27;37.58;;;17.67;;
22429;SDS011;11382;48.086;11.632;2023-01-28T05:26:55;38.33;;;19.42;;
22429;SDS011;11382;48.086;11.632;2023-01-28T05:29:23;36.67;;;18.27;;
22429;SDS011;11382;48.086;11.632;2023-01-28T05:31:52;29.95;;;16.90;;
22429;SDS011;11382;48.086;11.632;2023-01-28T05:34:20;34.67;;;17.08;;
22429;SDS011;11382;48.086;11.632;2023-01-28T05:36:50;33.00;;;17.33;;
22429;SDS011;11382;48.086;11.632;2023-01-28T05:39:28;34.63;;;16.98;;
22429;SDS011;11382;48.086;11.632;2023-01-28T05:41:56;39.03;;;18.02;;
22429;SDS011;11382;48.086;11.632;2023-01-28T05:44:25;34.15;;;16.92;;
22429;SDS011;11382;48.086;11.632;2023-01-28T05:47:02;32.42;;;16.55;;
22429;SDS011;11382;48.086;11.632;2023-01-28T05:49:42;37.63;;;17.77;;
22429;SDS011;11382;48.086;11.632;2023-01-28T05:52:31;35.83;;;17.35;;
22429;SDS011;11382;48.086;11.632;2023-01-28T05:55:00;33.70;;;17.23;;
22429;SDS011;11382;48.086;11.632;2023-01-28T05:57:29;35.13;;;17.23;;
22429;SDS011;11382;48.086;11.632;2023-01-28T05:59:59;38.17;;;18.23;;
22429;SDS011;11382;48.086;11.632;2023-01-28T06:02:28;30.73;;;16.75;;
22429;SDS011;11382;48.086;11.632;2023-01-28T06:04:58;35.65;;;17.17;;
22429;SDS011;11382;48.086;11.632;2023-01-28T06:07:26;34.00;;;17.05;;
22429;SDS011;11382;48.086;11.632;2023-01-28T06:09:57;37.78;;;17.95;;
22429;SDS011;11382;48.086;11.632;2023-01-28T06:12:25;33.70;;;18.08;;
22429;SDS011;11382;48.086;11.632;2023-01-28T06:15:12;34.13;;;16.83;;
22429;SDS011;11382;48.086;11.632;2023-01-28T06:17:55;34.67;;;16.92;;
22429;SDS011;11382;48.086;11.632;2023-01-28T06:20:28;33.15;;;17.58;;
22429;SDS011;11382;48.086;11.632;2023-01-28T06:22:58;30.58;;;16.13;;
22429;SDS011;11382;48.086;11.632;2023-01-28T06:25:27;31.35;;;15.80;;
22429;SDS011;11382;48.086;11.632;2023-01-28T06:27:59;32.90;;;16.60;;
22429;SDS011;11382;48.086;11.632;2023-01-28T06:30:27;33.75;;;16.83;;
22429;SDS011;11382;48.086;11.632;2023-01-28T06:32:55;30.35;;;15.50;;
22429;SDS011;11382;48.086;11.632;2023-01-28T06:35:23;34.08;;;16.35;;
22429;SDS011;11382;48.086;11.632;2023-01-28T06:37:51;32.90;;;16.95;;
22429;SDS011;11382;48.086;11.632;2023-01-28T06:40:19;33.80;;;16.13;;
22429;SDS011;11382;48.086;11.632;2023-01-28T06:42:49;29.73;;;15.55;;
22429;SDS011;11382;48.086;11.632;2023-01-28T06:45:17;30.45;;;15.98;;
22429;SDS011;11382;48.086;11.632;2023-01-28T06:47:45;31.88;;;16.58;;
22429;SDS011;11382;48.086;11.632;2023-01-28T06:50:13;32.47;;;16.58;;
22429;SDS011;11382;48.086;11.632;2023-01-28T06:52:42;31.50;;;16.83;;
22429;SDS011;11382;48.086;11.632;2023-01-28T06:55:10;32.58;;;16.65;;
22429;SDS011;11382;48.086;11.632;2023-01-28T06:57:38;33.75;;;16.40;;
22429;SDS011;11382;48.086;11.632;2023-01-28T07:00:09;30.02;;;16.30;;
22429;SDS011;11382;48.086;11.632;2023-01-28T07:02:41;29.73;;;16.77;;
22429;SDS011;11382;48.086;11.632;2023-01-28T07:05:09;29.30;;;15.93;;
22429;SDS011;11382;48.086;11.632;2023-01-28T07:07:37;29.08;;;15.80;;
22429;SDS011;11382;48.086;11.632;2023-01-28T07:10:08;32.65;;;17.02;;
22429;SDS011;11382;48.086;11.632;2023-01-28T07:12:36;30.80;;;15.68;;
22429;SDS011;11382;48.086;11.632;2023-01-28T07:15:05;33.88;;;16.70;;
22429;SDS011;11382;48.086;11.632;2023-01-28T07:17:39;30.55;;;15.82;;
22429;SDS011;11382;48.086;11.632;2023-01-28T07:20:08;36.60;;;17.02;;
22429;SDS011;11382;48.086;11.632;2023-01-28T07:22:39;33.75;;;16.40;;
22429;SDS011;11382;48.086;11.632;2023-01-28T07:25:08;29.83;;;16.20;;
22429;SDS011;11382;48.086;11.632;2023-01-28T07:27:37;31.95;;;16.30;;
22429;SDS011;11382;48.086;11.632;2023-01-28T07:30:06;30.58;;;15.48;;
22429;SDS011;11382;48.086;11.632;2023-01-28T07:32:35;32.08;;;16.40;;
22429;SDS011;11382;48.086;11.632;2023-01-28T07:35:05;30.73;;;16.52;;
22429;SDS011;11382;48.086;11.632;2023-01-28T07:37:33;31.17;;;16.75;;
22429;SDS011;11382;48.086;11.632;2023-01-28T07:40:01;31.90;;;15.93;;
22429;SDS011;11382;48.086;11.632;2023-01-28T07:42:29;36.10;;;17.08;;
22429;SDS011;11382;48.086;11.632;2023-01-28T07:45:02;33.00;;;16.55;;
22429;SDS011;11382;48.086;11.632;2023-01-28T07:47:31;36.78;;;17.52;;
22429;SDS011;11382;48.086;11.632;2023-01-28T07:49:59;32.55;;;16.88;;
22429;SDS011;11382;48.086;11.632;2023-01-28T07:52:29;30.35;;;16.60;;
22429;SDS011;11382;48.086;11.632;2023-01-28T07:54:56;35.28;;;16.83;;
22429;SDS011;11382;48.086;11.632;2023-01-28T07:57:24;31.10;;;17.15;;
22429;SDS011;11382;48.086;11.632;2023-01-28T07:59:55;32.92;;;17.27;;
22429;SDS011;11382;48.086;11.632;2023-01-28T08:02:23;30.00;;;16.73;;
22429;SDS011;11382;48.086;11.632;2023-01-28T08:04:51;28.88;;;15.52;;
22429;SDS011;11382;48.086;11.632;2023-01-28T08:07:20;30.25;;;15.70;;
22429;SDS011;11382;48.086;11.632;2023-01-28T08:09:49;33.08;;;17.02;;
22429;SDS011;11382;48.086;11.632;2023-01-28T08:12:17;36.10;;;18.23;;
22429;SDS011;11382;48.086;11.632;2023-01-28T08:14:45;36.35;;;17.77;;
22429;SDS011;11382;48.086;11.632;2023-01-28T08:17:13;33.65;;;17.60;;
22429;SDS011;11382;48.086;11.632;2023-01-28T08:19:41;34.83;;;16.80;;
22429;SDS011;11382;48.086;11.632;2023-01-28T08:22:09;36.33;;;17.58;;
22429;SDS011;11382;48.086;11.632;2023-01-28T08:24:37;33.15;;;17.30;;
22429;SDS011;11382;48.086;11.632;2023-01-28T08:27:06;34.53;;;17.35;;
22429;SDS011;11382;48.086;11.632;2023-01-28T08:29:34;33.25;;;17.38;;
22429;SDS011;11382;48.086;11.632;2023-01-28T08:32:02;29.63;;;16.33;;
22429;SDS011;11382;48.086;11.632;2023-01-28T08:34:30;35.50;;;17.60;;
22429;SDS011;11382;48.086;11.632;2023-01-28T08:36:58;31.55;;;16.45;;
22429;SDS011;11382;48.086;11.632;2023-01-28T08:39:26;32.33;;;16.67;;
22429;SDS011;11382;48.086;11.632;2023-01-28T08:41:54;32.75;;;16.90;;
22429;SDS011;11382;48.086;11.632;2023-01-28T08:44:24;32.05;;;16.08;;
22429;SDS011;11382;48.086;11.632;2023-01-28T08:46:52;31.38;;;16.42;;
22429;SDS011;11382;48.086;11.632;2023-01-28T08:49:20;29.73;;;15.45;;
22429;SDS011;11382;48.086;11.632;2023-01-28T08:51:48;25.90;;;14.38;;
22429;SDS011;11382;48.086;11.632;2023-01-28T08:54:16;29.17;;;14.80;;
22429;SDS011;11382;48.086;11.632;2023-01-28T08:56:43;29.60;;;14.20;;
22429;SDS011;11382;48.086;11.632;2023-01-28T08:59:13;27.52;;;14.82;;
22429;SDS011;11382;48.086;11.632;2023-01-28T09:01:43;28.58;;;14.80;;
22429;SDS011;11382;48.086;11.632;2023-01-28T09:04:11;28.42;;;14.25;;
22429;SDS011;11382;48.086;11.632;2023-01-28T09:06:39;26.42;;;14.18;;
22429;SDS011;11382;48.086;11.632;2023-01-28T09:09:07;27.88;;;14.00;;
22429;SDS011;11382;48.086;11.632;2023-01-28T09:11:35;27.35;;;14.00;;
22429;SDS011;11382;48.086;11.632;2023-01-28T09:14:03;27.45;;;14.43;;
22429;SDS011;11382;48.086;11.632;2023-01-28T09:16:31;28.58;;;14.25;;
22429;SDS011;11382;48.086;11.632;2023-01-28T09:19:00;26.70;;;14.68;;
22429;SDS011;11382;48.086;11.632;2023-01-28T09:21:28;25.85;;;13.07;;
22429;SDS011;11382;48.086;11.632;2023-01-28T09:23:56;26.52;;;13.90;;
22429;SDS011;11382;48.086;11.632;2023-01-28T09:26:24;25.52;;;13.55;;
22429;SDS011;11382;48.086;11.632;2023-01-28T09:28:52;29.13;;;15.25;;
22429;SDS011;11382;48.086;11.632;2023-01-28T09:31:21;28.65;;;14.32;;
22429;SDS011;11382;48.086;11.632;2023-01-28T09:33:49;29.98;;;14.63;;
22429;SDS011;11382;48.086;11.632;2023-01-28T09:36:23;31.45;;;15.32;;
22429;SDS011;11382;48.086;11.632;2023-01-28T09:38:51;27.50;;;14.90;;
22429;SDS011;11382;48.086;11.632;2023-01-28T09:41:23;30.42;;;14.68;;
22429;SDS011;11382;48.086;11.632;2023-01-28T09:43:57;26.30;;;13.90;;
22429;SDS011;11382;48.086;11.632;2023-01-28T09:46:32;27.10;;;13.82;;
22429;SDS011;11382;48.086;11.632;2023-01-28T09:49:03;25.35;;;14.07;;
22429;SDS011;11382;48.086;11.632;2023-01-28T09:51:40;25.60;;;13.95;;
22429;SDS011;11382;48.086;11.632;2023-01-28T09:54:11;29.83;;;14.15;;
22429;SDS011;11382;48.086;11.632;2023-01-28T09:56:46;28.80;;;14.43;;
22429;SDS011;11382;48.086;11.632;2023-01-28T09:59:18;25.42;;;13.48;;
22429;SDS011;11382;48.086;11.632;2023-01-28T10:01:53;26.35;;;12.90;;
22429;SDS011;11382;48.086;11.632;2023-01-28T10:04:28;24.08;;;12.40;;
22429;SDS011;11382;48.086;11.632;2023-01-28T10:07:19;23.33;;;12.88;;
22429;SDS011;11382;48.086;11.632;2023-01-28T10:09:58;26.10;;;13.48;;
22429;SDS011;11382;48.086;11.632;2023-01-28T10:12:33;27.08;;;13.23;;
22429;SDS011;11382;48.086;11.632;2023-01-28T10:15:26;24.60;;;12.60;;
22429;SDS011;11382;48.086;11.632;2023-01-28T10:18:07;22.42;;;10.73;;
22429;SDS011;11382;48.086;11.632;2023-01-28T10:20:44;24.48;;;12.15;;
22429;SDS011;11382;48.086;11.632;2023-01-28T10:23:18;16.37;;;8.23;;
22429;SDS011;11382;48.086;11.632;2023-01-28T10:25:50;23.60;;;12.15;;
22429;SDS011;11382;48.086;11.632;2023-01-28T10:28:24;21.60;;;11.33;;
22429;SDS011;11382;48.086;11.632;2023-01-28T10:30:55;23.20;;;11.30;;
22429;SDS011;11382;48.086;11.632;2023-01-28T10:33:24;21.48;;;11.07;;
22429;SDS011;11382;48.086;11.632;2023-01-28T10:35:57;20.85;;;10.63;;
22429;SDS011;11382;48.086;11.632;2023-01-28T10:38:27;19.65;;;9.95;;
22429;SDS011;11382;48.086;11.632;2023-01-28T10:40:57;17.67;;;9.80;;
22429;SDS011;11382;48.086;11.632;2023-01-28T10:43:29;19.08;;;9.77;;
22429;SDS011;11382;48.086;11.632;2023-01-28T10:46:00;14.90;;;8.48;;
22429;SDS011;11382;48.086;11.632;2023-01-28T10:48:33;15.10;;;8.18;;
22429;SDS011;11382;48.086;11.632;2023-01-28T10:51:04;18.08;;;9.25;;
22429;SDS011;11382;48.086;11.632;2023-01-28T10:53:35;18.30;;;9.05;;
22429;SDS011;11382;48.086;11.632;2023-01-28T10:56:05;21.45;;;12.00;;
22429;SDS011;11382;48.086;11.632;2023-01-28T10:58:45;22.25;;;12.05;;
22429;SDS011;11382;48.086;11.632;2023-01-28T11:01:16;25.00;;;11.57;;
22429;SDS011;11382;48.086;11.632;2023-01-28T11:03:52;26.08;;;12.32;;
22429;SDS011;11382;48.086;11.632;2023-01-28T11:06:23;22.92;;;11.65;;
22429;SDS011;11382;48.086;11.632;2023-01-28T11:08:54;21.38;;;11.32;;
22429;SDS011;11382;48.086;11.632;2023-01-28T11:11:26;23.13;;;11.35;;
22429;SDS011;11382;48.086;11.632;2023-01-28T11:13:55;22.13;;;11.05;;
22429;SDS011;11382;48.086;11.632;2023-01-28T11:16:24;22.95;;;11.88;;
22429;SDS011;11382;48.086;11.632;2023-01-28T11:18:53;21.08;;;10.95;;
22429;SDS011;11382;48.086;11.632;2023-01-28T11:21:24;21.83;;;11.18;;
22429;SDS011;11382;48.086;11.632;2023-01-28T11:24:14;21.15;;;10.07;;
22429;SDS011;11382;48.086;11.632;2023-01-28T11:26:48;21.35;;;10.55;;
22429;SDS011;11382;48.086;11.632;2023-01-28T11:29:20;18.60;;;10.05;;
22429;SDS011;11382;48.086;11.632;2023-01-28T11:34:19;20.60;;;11.02;;
22429;SDS011;11382;48.086;11.632;2023-01-28T11:36:52;19.20;;;10.17;;
22429;SDS011;11382;48.086;11.632;2023-01-28T11:39:23;19.05;;;9.70;;
22429;SDS011;11382;48.086;11.632;2023-01-28T11:41:54;19.75;;;9.80;;
22429;SDS011;11382;48.086;11.632;2023-01-28T11:44:36;22.10;;;11.43;;
22429;SDS011;11382;48.086;11.632;2023-01-28T11:47:11;22.33;;;11.23;;
22429;SDS011;11382;48.086;11.632;2023-01-28T11:49:55;22.48;;;11.98;;
22429;SDS011;11382;48.086;11.632;2023-01-28T11:52:45;22.95;;;11.52;;
22429;SDS011;11382;48.086;11.632;2023-01-28T11:55:41;20.73;;;11.40;;
22429;SDS011;11382;48.086;11.632;2023-01-28T11:58:19;20.75;;;11.82;;
22429;SDS011;11382;48.086;11.632;2023-01-28T12:00:51;21.70;;;12.27;;
22429;SDS011;11382;48.086;11.632;2023-01-28T12:03:33;21.45;;;11.43;;
22429;SDS011;11382;48.086;11.632;2023-01-28T12:06:17;24.23;;;13.52;;
22429;SDS011;11382;48.086;11.632;2023-01-28T12:09:11;22.65;;;10.88;;
22429;SDS011;11382;48.086;11.632;2023-01-28T12:11:50;19.33;;;10.48;;
22429;SDS011;11382;48.086;11.632;2023-01-28T12:14:42;18.47;;;10.70;;
22429;SDS011;11382;48.086;11.632;2023-01-28T12:17:32;19.88;;;11.23;;
22429;SDS011;11382;48.086;11.632;2023-01-28T12:20:11;18.38;;;10.88;;
22429;SDS011;11382;48.086;11.632;2023-01-28T12:22:55;19.58;;;10.75;;
22429;SDS011;11382;48.086;11.632;2023-01-28T12:25:46;19.02;;;10.20;;
22429;SDS011;11382;48.086;11.632;2023-01-28T12:28:35;19.67;;;10.98;;
22429;SDS011;11382;48.086;11.632;2023-01-28T12:31:13;18.08;;;10.27;;
22429;SDS011;11382;48.086;11.632;2023-01-28T12:34:15;19.15;;;9.90;;
22429;SDS011;11382;48.086;11.632;2023-01-28T12:37:05;21.30;;;11.02;;
22429;SDS011;11382;48.086;11.632;2023-01-28T12:39:44;16.35;;;9.35;;
22429;SDS011;11382;48.086;11.632;2023-01-28T12:42:24;16.10;;;9.23;;
22429;SDS011;11382;48.086;11.632;2023-01-28T12:45:01;18.15;;;9.70;;
22429;SDS011;11382;48.086;11.632;2023-01-28T12:47:41;18.48;;;10.02;;
22429;SDS011;11382;48.086;11.632;2023-01-28T12:50:15;17.50;;;10.23;;
22429;SDS011;11382;48.086;11.632;2023-01-28T12:52:48;17.90;;;9.95;;
22429;SDS011;11382;48.086;11.632;2023-01-28T12:55:19;15.90;;;8.80;;
22429;SDS011;11382;48.086;11.632;2023-01-28T12:57:55;14.48;;;7.93;;
22429;SDS011;11382;48.086;11.632;2023-01-28T13:00:26;17.45;;;10.50;;
22429;SDS011;11382;48.086;11.632;2023-01-28T13:03:01;16.55;;;9.75;;
22429;SDS011;11382;48.086;11.632;2023-01-28T13:05:36;16.08;;;8.43;;
22429;SDS011;11382;48.086;11.632;2023-01-28T13:08:09;15.45;;;8.50;;
22429;SDS011;11382;48.086;11.632;2023-01-28T13:10:40;18.55;;;9.68;;
22429;SDS011;11382;48.086;11.632;2023-01-28T13:13:12;18.17;;;9.90;;
22429;SDS011;11382;48.086;11.632;2023-01-28T13:15:45;16.25;;;9.85;;
22429;SDS011;11382;48.086;11.632;2023-01-28T13:18:30;19.05;;;10.32;;
22429;SDS011;11382;48.086;11.632;2023-01-28T13:21:00;18.60;;;10.38;;
22429;SDS011;11382;48.086;11.632;2023-01-28T13:23:36;19.52;;;10.73;;
22429;SDS011;11382;48.086;11.632;2023-01-28T13:26:26;22.67;;;10.60;;
22429;SDS011;11382;48.086;11.632;2023-01-28T13:29:06;18.10;;;10.13;;
22429;SDS011;11382;48.086;11.632;2023-01-28T13:31:45;16.52;;;9.45;;
22429;SDS011;11382;48.086;11.632;2023-01-28T13:34:27;14.52;;;8.05;;
22429;SDS011;11382;48.086;11.632;2023-01-28T13:37:02;18.65;;;9.32;;
22429;SDS011;11382;48.086;11.632;2023-01-28T13:39:34;10.68;;;6.47;;
22429;SDS011;11382;48.086;11.632;2023-01-28T13:42:18;18.67;;;9.90;;
22429;SDS011;11382;48.086;11.632;2023-01-28T13:44:48;17.77;;;10.38;;
22429;SDS011;11382;48.086;11.632;2023-01-28T13:47:23;15.50;;;9.32;;
22429;SDS011;11382;48.086;11.632;2023-01-28T13:49:56;16.33;;;8.88;;
22429;SDS011;11382;48.086;11.632;2023-01-28T13:52:28;21.60;;;9.30;;
22429;SDS011;11382;48.086;11.632;2023-01-28T13:55:00;16.85;;;8.90;;
22429;SDS011;11382;48.086;11.632;2023-01-28T13:57:42;11.60;;;7.38;;
22429;SDS011;11382;48.086;11.632;2023-01-28T14:00:35;16.80;;;10.07;;
22429;SDS011;11382;48.086;11.632;2023-01-28T14:03:29;18.73;;;10.25;;
22429;SDS011;11382;48.086;11.632;2023-01-28T14:06:17;19.05;;;10.52;;
22429;SDS011;11382;48.086;11.632;2023-01-28T14:09:09;20.58;;;10.60;;
22429;SDS011;11382;48.086;11.632;2023-01-28T14:12:00;18.65;;;9.93;;
22429;SDS011;11382;48.086;11.632;2023-01-28T14:14:57;17.95;;;9.27;;
22429;SDS011;11382;48.086;11.632;2023-01-28T14:17:40;17.15;;;9.73;;
22429;SDS011;11382;48.086;11.632;2023-01-28T14:20:15;17.52;;;9.32;;
22429;SDS011;11382;48.086;11.632;2023-01-28T14:22:46;17.23;;;8.95;;
22429;SDS011;11382;48.086;11.632;2023-01-28T14:25:17;17.15;;;9.32;;
22429;SDS011;11382;48.086;11.632;2023-01-28T14:27:51;18.23;;;9.45;;
22429;SDS011;11382;48.086;11.632;2023-01-28T14:30:21;17.73;;;9.60;;
22429;SDS011;11382;48.086;11.632;2023-01-28T14:32:55;17.55;;;9.50;;
22429;SDS011;11382;48.086;11.632;2023-01-28T14:35:26;18.27;;;9.48;;
22429;SDS011;11382;48.086;11.632;2023-01-28T14:37:56;18.98;;;9.70;;
22429;SDS011;11382;48.086;11.632;2023-01-28T14:40:27;18.95;;;8.85;;
22429;SDS011;11382;48.086;11.632;2023-01-28T14:42:56;18.23;;;10.10;;
22429;SDS011;11382;48.086;11.632;2023-01-28T14:45:31;18.58;;;9.70;;
22429;SDS011;11382;48.086;11.632;2023-01-28T14:48:16;16.42;;;8.60;;
22429;SDS011;11382;48.086;11.632;2023-01-28T14:51:04;19.75;;;9.18;;
22429;SDS011;11382;48.086;11.632;2023-01-28T14:53:54;19.67;;;9.30;;
22429;SDS011;11382;48.086;11.632;2023-01-28T14:56:44;19.05;;;9.55;;